Time,TemperatureF,DewpointF,PressureIn,WindDirection,WindDirectionDegrees,WindSpeedMPH,WindSpeedGustMPH,Humidity,HourlyPrecipIn,Conditions,Clouds,dailyrainin,SoftwareType,DateUTC
2013-04-11 00:03:00,75.0,-99.9,30.07,ESE,123,4.0,8.0,-999,-99.99,,,-99.99,,2013-04-11 10:03:00,
2013-04-11 00:13:00,75.0,-99.9,30.07,ESE,115,2.0,6.0,-999,-99.99,,,-99.99,,2013-04-11 10:13:00,
2013-04-11 00:23:00,75.0,-99.9,30.06,ESE,116,2.0,5.0,-999,-99.99,,,-99.99,,2013-04-11 10:23:00,
2013-04-11 00:32:00,75.0,-99.9,30.06,ENE,69,3.0,4.0,-999,-99.99,,,-99.99,,2013-04-11 10:32:00,
2013-04-11 00:42:00,75.0,-99.9,30.06,ENE,69,3.0,4.0,-999,-99.99,,,-99.99,,2013-04-11 10:42:00,
2013-04-11 00:53:00,75.0,-99.9,30.06,ENE,69,3.0,4.0,-999,-99.99,,,-99.99,,2013-04-11 10:53:00,
2013-04-11 01:03:00,75.0,-99.9,30.06,NE,37,1.0,2.0,-999,-99.99,,,-99.99,,2013-04-11 11:03:00,
2013-04-11 01:13:00,75.0,-99.9,30.06,East,99,3.0,5.0,-999,-99.99,,,-99.99,,2013-04-11 11:13:00,
2013-04-11 01:23:00,74.0,-99.9,30.06,NE,42,3.0,4.0,-999,-99.99,,,-99.99,,2013-04-11 11:23:00,
2013-04-11 01:32:00,74.0,-99.9,30.06,NNE,32,2.0,3.0,-999,-99.99,,,-99.99,,2013-04-11 11:32:00,
2013-04-11 01:43:00,74.0,-99.9,30.06,ENE,58,1.0,3.0,-999,-99.99,,,-99.99,,2013-04-11 11:43:00,
2013-04-11 01:53:00,74.0,-99.9,30.05,ENE,69,1.0,2.0,-999,-99.99,,,-99.99,,2013-04-11 11:53:00,
2013-04-11 02:02:00,74.0,-99.9,30.05,NE,36,3.0,4.0,-999,-99.99,,,-99.99,,2013-04-11 12:02:00,
2013-04-11 02:13:00,74.0,-99.9,30.04,ESE,123,1.0,2.0,-999,-99.99,,,-99.99,,2013-04-11 12:13:00,
2013-04-11 02:23:00,74.0,-99.9,30.04,ENE,61,2.0,3.0,-999,-99.99,,,-99.99,,2013-04-11 12:23:00,
2013-04-11 02:32:00,73.0,-99.9,30.04,ENE,61,-999.0,2.0,-999,-99.99,,,-99.99,,2013-04-11 12:32:00,
2013-04-11 02:43:00,73.0,-99.9,30.04,NE,46,-999.0,1.0,-999,-99.99,,,-99.99,,2013-04-11 12:43:00,
2013-04-11 02:53:00,73.0,-99.9,30.03,North,-999,-999.0,-999.0,-999,-99.99,,,-99.99,,2013-04-11 12:53:00,
2013-04-11 03:02:00,72.0,-99.9,30.03,North,-999,-999.0,-999.0,-999,-99.99,,,-99.99,,2013-04-11 13:02:00,
2013-04-11 03:13:00,72.0,-99.9,30.02,NE,46,-999.0,0.0,-999,-99.99,,,-99.99,,2013-04-11 13:13:00,
2013-04-11 03:23:00,72.0,-99.9,30.02,North,4,-999.0,4.0,-999,-99.99,,,-99.99,,2013-04-11 13:23:00,
2013-04-11 03:33:00,72.0,-99.9,30.02,NE,42,1.0,3.0,-999,-99.99,,,-99.99,,2013-04-11 13:33:00,
2013-04-11 03:43:00,72.0,-99.9,30.02,NNW,348,3.0,4.0,-999,-99.99,,,-99.99,,2013-04-11 13:43:00,
2013-04-11 03:54:00,72.0,-99.9,30.02,North,1,3.0,6.0,-999,-99.99,,,-99.99,,2013-04-11 13:54:00,
2013-04-11 04:03:00,72.0,-99.9,30.02,NE,36,1.0,2.0,-999,-99.99,,,-99.99,,2013-04-11 14:03:00,
2013-04-11 04:13:00,72.0,-99.9,30.01,NE,51,-999.0,1.0,-999,-99.99,,,-99.99,,2013-04-11 14:13:00,
2013-04-11 04:22:00,72.0,-99.9,30.02,East,91,2.0,3.0,-999,-99.99,,,-99.99,,2013-04-11 14:22:00,
2013-04-11 04:33:00,72.0,-99.9,30.01,East,83,0.0,1.0,-999,-99.99,,,-99.99,,2013-04-11 14:33:00,
2013-04-11 04:43:00,72.0,-99.9,30.02,East,88,1.0,2.0,-999,-99.99,,,-99.99,,2013-04-11 14:43:00,
2013-04-11 04:53:00,72.0,-99.9,30.02,ESE,109,-999.0,2.0,-999,-99.99,,,-99.99,,2013-04-11 14:53:00,
2013-04-11 05:03:00,71.0,-99.9,30.02,North,-999,-999.0,-999.0,-999,-99.99,,,-99.99,,2013-04-11 15:03:00,
2013-04-11 05:12:00,72.0,-99.9,30.02,NNE,16,-999.0,1.0,-999,-99.99,,,-99.99,,2013-04-11 15:12:00,
2013-04-11 05:22:00,71.0,-99.9,30.02,North,355,1.0,3.0,-999,-99.99,,,-99.99,,2013-04-11 15:22:00,
2013-04-11 05:32:00,71.0,-99.9,30.02,North,6,1.0,2.0,-999,-99.99,,,-99.99,,2013-04-11 15:32:00,
2013-04-11 05:43:00,72.0,-99.9,30.02,North,350,2.0,4.0,-999,-99.99,,,-99.99,,2013-04-11 15:43:00,
2013-04-11 05:53:00,72.0,-99.9,30.02,North,355,4.0,6.0,-999,-99.99,,,-99.99,,2013-04-11 15:53:00,
2013-04-11 06:02:00,72.0,-99.9,30.02,NE,39,2.0,3.0,-999,-99.99,,,-99.99,,2013-04-11 16:02:00,
2013-04-11 06:13:00,72.0,-99.9,30.03,ENE,78,2.0,3.0,-999,-99.99,,,-99.99,,2013-04-11 16:13:00,
2013-04-11 06:23:00,72.0,-99.9,30.03,ESE,102,1.0,3.0,-999,-99.99,,,-99.99,,2013-04-11 16:23:00,
2013-04-11 06:32:00,73.0,-99.9,30.04,ESE,111,2.0,3.0,-999,-99.99,,,-99.99,,2013-04-11 16:32:00,
2013-04-11 06:42:00,73.0,-99.9,30.04,ENE,72,1.0,3.0,-999,-99.99,,,-99.99,,2013-04-11 16:42:00,
2013-04-11 06:53:00,73.0,-99.9,30.04,ENE,60,4.0,4.0,-999,-99.99,,,-99.99,,2013-04-11 16:53:00,
2013-04-11 07:03:00,74.0,-99.9,30.04,East,87,1.0,2.0,-999,-99.99,,,-99.99,,2013-04-11 17:03:00,
2013-04-11 07:13:00,74.0,-99.9,30.04,ESE,106,0.0,2.0,-999,-99.99,,,-99.99,,2013-04-11 17:13:00,
2013-04-11 07:23:00,74.0,-99.9,30.04,NNW,335,0.0,1.0,-999,-99.99,,,-99.99,,2013-04-11 17:23:00,
2013-04-11 07:33:00,74.0,-99.9,30.04,North,350,2.0,3.0,-999,-99.99,,,-99.99,,2013-04-11 17:33:00,
2013-04-11 07:43:00,74.0,-99.9,30.04,NNW,343,2.0,3.0,-999,-99.99,,,-99.99,,2013-04-11 17:43:00,
2013-04-11 07:53:00,75.0,-99.9,30.04,North,354,1.0,2.0,-999,-99.99,,,-99.99,,2013-04-11 17:53:00,
2013-04-11 08:03:00,76.0,-99.9,30.04,NW,326,3.0,3.0,-999,-99.99,,,-99.99,,2013-04-11 18:03:00,
2013-04-11 08:13:00,76.0,-99.9,30.05,NNW,329,3.0,4.0,-999,-99.99,,,-99.99,,2013-04-11 18:13:00,
2013-04-11 08:23:00,76.0,-99.9,30.05,NW,324,3.0,4.0,-999,-99.99,,,-99.99,,2013-04-11 18:23:00,
2013-04-11 08:33:00,77.0,-99.9,30.05,NW,323,2.0,3.0,-999,-99.99,,,-99.99,,2013-04-11 18:33:00,
2013-04-11 08:43:00,77.0,-99.9,30.05,NW,325,3.0,4.0,-999,-99.99,,,-99.99,,2013-04-11 18:43:00,
2013-04-11 08:53:00,77.0,-99.9,30.05,NNW,332,3.0,4.0,-999,-99.99,,,-99.99,,2013-04-11 18:53:00,
2013-04-11 09:04:00,78.0,-99.9,30.06,North,353,2.0,5.0,-999,-99.99,,,-99.99,,2013-04-11 19:04:00,
2013-04-11 09:14:00,78.0,-99.9,30.06,WNW,298,4.0,6.0,-999,-99.99,,,-99.99,,2013-04-11 19:14:00,
2013-04-11 09:23:00,78.0,-99.9,30.06,NW,319,3.0,6.0,-999,-99.99,,,-99.99,,2013-04-11 19:23:00,
2013-04-11 09:33:00,77.0,-99.9,30.05,WSW,247,2.0,5.0,-999,-99.99,,,-99.99,,2013-04-11 19:33:00,
2013-04-11 09:43:00,78.0,-99.9,30.05,NNW,334,4.0,6.0,-999,-99.99,,,-99.99,,2013-04-11 19:43:00,
2013-04-11 09:53:00,78.0,-99.9,30.05,WNW,287,3.0,6.0,-999,-99.99,,,-99.99,,2013-04-11 19:53:00,
2013-04-11 10:03:00,79.0,-99.9,30.05,NE,56,3.0,5.0,-999,-99.99,,,-99.99,,2013-04-11 20:03:00,
2013-04-11 10:13:00,79.0,-99.9,30.05,NW,326,4.0,6.0,-999,-99.99,,,-99.99,,2013-04-11 20:13:00,
2013-04-11 10:22:00,79.0,-99.9,30.04,North,-999,6.0,9.0,-999,-99.99,,,-99.99,,2013-04-11 20:22:00,
2013-04-11 10:34:00,80.0,-99.9,30.04,NNW,339,1.0,5.0,-999,-99.99,,,-99.99,,2013-04-11 20:34:00,
2013-04-11 10:43:00,78.0,-99.9,30.04,SW,222,6.0,9.0,-999,-99.99,,,-99.99,,2013-04-11 20:43:00,
2013-04-11 10:53:00,77.0,-99.9,30.04,SW,218,9.0,11.0,-999,-99.99,,,-99.99,,2013-04-11 20:53:00,
2013-04-11 11:03:00,78.0,-99.9,30.04,SSW,204,7.0,11.0,-999,-99.99,,,-99.99,,2013-04-11 21:03:00,
2013-04-11 11:13:00,78.0,-99.9,30.04,SSW,204,7.0,11.0,-999,-99.99,,,-99.99,,2013-04-11 21:13:00,
2013-04-11 11:23:00,79.0,-99.9,30.03,South,180,5.0,10.0,-999,-99.99,,,-99.99,,2013-04-11 21:23:00,
2013-04-11 11:33:00,78.0,-99.9,30.03,South,181,7.0,11.0,-999,-99.99,,,-99.99,,2013-04-11 21:33:00,
2013-04-11 11:43:00,79.0,-99.9,30.03,South,189,5.0,10.0,-999,-99.99,,,-99.99,,2013-04-11 21:43:00,
2013-04-11 11:54:00,79.0,-99.9,30.02,SSE,160,6.0,11.0,-999,-99.99,,,-99.99,,2013-04-11 21:54:00,
2013-04-11 12:03:00,80.0,-99.9,30.01,SSE,163,5.0,11.0,-999,-99.99,,,-99.99,,2013-04-11 22:03:00,
2013-04-11 12:13:00,79.0,-99.9,30.01,South,182,6.0,10.0,-999,-99.99,,,-99.99,,2013-04-11 22:13:00,
2013-04-11 12:23:00,80.0,-99.9,30.01,South,181,6.0,10.0,-999,-99.99,,,-99.99,,2013-04-11 22:23:00,
2013-04-11 12:33:00,81.0,-99.9,30.01,SSE,153,5.0,12.0,-999,-99.99,,,-99.99,,2013-04-11 22:33:00,
2013-04-11 12:44:00,82.0,-99.9,30.01,SE,136,4.0,10.0,-999,-99.99,,,-99.99,,2013-04-11 22:44:00,
2013-04-11 12:53:00,81.0,-99.9,30.00,South,169,7.0,11.0,-999,-99.99,,,-99.99,,2013-04-11 22:53:00,
2013-04-11 13:04:00,82.0,-99.9,30.00,South,176,7.0,11.0,-999,-99.99,,,-99.99,,2013-04-11 23:04:00,
2013-04-11 13:13:00,83.0,-99.9,29.99,SSE,158,7.0,11.0,-999,-99.99,,,-99.99,,2013-04-11 23:13:00,
2013-04-11 13:23:00,82.0,-99.9,29.99,SSE,160,7.0,12.0,-999,-99.99,,,-99.99,,2013-04-11 23:23:00,
2013-04-11 13:33:00,83.0,-99.9,29.99,SSE,167,4.0,14.0,-999,-99.99,,,-99.99,,2013-04-11 23:33:00,
2013-04-11 13:43:00,82.0,-99.9,29.99,South,184,7.0,12.0,-999,-99.99,,,-99.99,,2013-04-11 23:43:00,
2013-04-11 13:54:00,82.0,-99.9,29.99,ENE,60,4.0,10.0,-999,-99.99,,,-99.99,,2013-04-11 23:54:00,
2013-04-11 14:02:00,82.0,-99.9,29.98,East,99,2.0,6.0,-999,-99.99,,,-99.99,,2013-04-12 00:02:00,
2013-04-11 14:12:00,81.0,-99.9,29.98,ENE,75,1.0,8.0,-999,-99.99,,,-99.99,,2013-04-12 00:12:00,
2013-04-11 14:22:00,82.0,-99.9,29.98,ESE,119,5.0,12.0,-999,-99.99,,,-99.99,,2013-04-12 00:22:00,
2013-04-11 14:33:00,79.0,-99.9,29.98,SSW,194,8.0,11.0,-999,-99.99,,,-99.99,,2013-04-12 00:33:00,
2013-04-11 14:43:00,79.0,-99.9,29.97,SSW,196,7.0,10.0,-999,-99.99,,,-99.99,,2013-04-12 00:43:00,
2013-04-11 14:53:00,80.0,-99.9,29.96,SSW,207,9.0,13.0,-999,-99.99,,,-99.99,,2013-04-12 00:53:00,
2013-04-11 15:03:00,80.0,-99.9,29.97,WNW,284,4.0,7.0,-999,-99.99,,,-99.99,,2013-04-12 01:03:00,
2013-04-11 15:12:00,80.0,-99.9,29.96,NE,47,4.0,8.0,-999,-99.99,,,-99.99,,2013-04-12 01:12:00,
2013-04-11 15:23:00,81.0,-99.9,29.96,ENE,78,3.0,9.0,-999,-99.99,,,-99.99,,2013-04-12 01:23:00,
2013-04-11 15:33:00,81.0,-99.9,29.96,ENE,73,7.0,10.0,-999,-99.99,,,-99.99,,2013-04-12 01:33:00,
2013-04-11 15:42:00,80.0,-99.9,29.96,North,355,3.0,11.0,-999,-99.99,,,-99.99,,2013-04-12 01:42:00,
2013-04-11 15:53:00,79.0,-99.9,29.97,ENE,61,7.0,15.0,-999,-99.99,,,-99.99,,2013-04-12 01:53:00,
2013-04-11 16:03:00,79.0,-99.9,29.96,ENE,68,7.0,13.0,-999,-99.99,,,-99.99,,2013-04-12 02:03:00,
2013-04-11 16:12:00,79.0,-99.9,29.96,NE,38,4.0,11.0,-999,-99.99,,,-99.99,,2013-04-12 02:12:00,
2013-04-11 16:22:00,80.0,-99.9,29.96,ENE,68,4.0,13.0,-999,-99.99,,,-99.99,,2013-04-12 02:22:00,
2013-04-11 16:32:00,80.0,-99.9,29.96,ENE,66,5.0,9.0,-999,-99.99,,,-99.99,,2013-04-12 02:32:00,
2013-04-11 16:42:00,80.0,-99.9,29.96,North,2,5.0,10.0,-999,-99.99,,,-99.99,,2013-04-12 02:42:00,
2013-04-11 16:52:00,79.0,-99.9,29.96,WSW,246,1.0,8.0,-999,-99.99,,,-99.99,,2013-04-12 02:52:00,
2013-04-11 17:02:00,80.0,-99.9,29.96,ENE,61,3.0,7.0,-999,-99.99,,,-99.99,,2013-04-12 03:02:00,
2013-04-11 17:12:00,80.0,-99.9,29.96,NW,309,2.0,4.0,-999,-99.99,,,-99.99,,2013-04-12 03:12:00,
2013-04-11 17:22:00,78.0,-99.9,29.96,South,173,6.0,9.0,-999,-99.99,,,-99.99,,2013-04-12 03:22:00,
2013-04-11 17:33:00,78.0,-99.9,29.96,SSE,167,6.0,10.0,-999,-99.99,,,-99.99,,2013-04-12 03:33:00,
2013-04-11 17:43:00,78.0,-99.9,29.96,South,170,4.0,10.0,-999,-99.99,,,-99.99,,2013-04-12 03:43:00,
2013-04-11 17:53:00,78.0,-99.9,29.96,South,190,6.0,10.0,-999,-99.99,,,-99.99,,2013-04-12 03:53:00,
2013-04-11 18:03:00,77.0,-99.9,29.97,SE,145,5.0,10.0,-999,-99.99,,,-99.99,,2013-04-12 04:03:00,
2013-04-11 18:13:00,78.0,-99.9,29.97,SSE,152,4.0,8.0,-999,-99.99,,,-99.99,,2013-04-12 04:13:00,
2013-04-11 18:23:00,78.0,-99.9,29.97,SE,141,3.0,8.0,-999,-99.99,,,-99.99,,2013-04-12 04:23:00,
2013-04-11 18:33:00,77.0,-99.9,29.97,SSE,161,4.0,7.0,-999,-99.99,,,-99.99,,2013-04-12 04:33:00,
2013-04-11 18:43:00,77.0,-99.9,29.97,SSE,152,4.0,8.0,-999,-99.99,,,-99.99,,2013-04-12 04:43:00,
2013-04-11 18:53:00,77.0,-99.9,29.98,SSE,151,6.0,8.0,-999,-99.99,,,-99.99,,2013-04-12 04:53:00,
2013-04-11 19:03:00,77.0,-99.9,29.98,SSE,157,4.0,8.0,-999,-99.99,,,-99.99,,2013-04-12 05:03:00,
2013-04-11 19:12:00,77.0,-99.9,29.98,SE,138,4.0,8.0,-999,-99.99,,,-99.99,,2013-04-12 05:12:00,
2013-04-11 19:23:00,77.0,-99.9,29.98,ESE,121,6.0,8.0,-999,-99.99,,,-99.99,,2013-04-12 05:23:00,
2013-04-11 19:32:00,77.0,-99.9,29.99,ESE,113,4.0,9.0,-999,-99.99,,,-99.99,,2013-04-12 05:32:00,
2013-04-11 19:42:00,77.0,-99.9,29.99,ESE,103,2.0,7.0,-999,-99.99,,,-99.99,,2013-04-12 05:42:00,
2013-04-11 19:52:00,77.0,-99.9,29.99,ESE,121,4.0,6.0,-999,-99.99,,,-99.99,,2013-04-12 05:52:00,
2013-04-11 20:02:00,77.0,-99.9,29.99,SE,128,3.0,8.0,-999,-99.99,,,-99.99,,2013-04-12 06:02:00,
2013-04-11 20:12:00,77.0,-99.9,30.00,ESE,120,5.0,9.0,-999,-99.99,,,-99.99,,2013-04-12 06:12:00,
2013-04-11 20:22:00,77.0,-99.9,30.00,South,176,3.0,5.0,-999,-99.99,,,-99.99,,2013-04-12 06:22:00,
2013-04-11 20:32:00,77.0,-99.9,30.00,SE,146,3.0,5.0,-999,-99.99,,,-99.99,,2013-04-12 06:32:00,
2013-04-11 20:42:00,77.0,-99.9,30.00,ESE,123,0.0,2.0,-999,-99.99,,,-99.99,,2013-04-12 06:42:00,
2013-04-11 20:52:00,77.0,-99.9,30.00,ESE,111,3.0,6.0,-999,-99.99,,,-99.99,,2013-04-12 06:52:00,
2013-04-11 21:02:00,77.0,-99.9,30.00,East,89,2.0,6.0,-999,-99.99,,,-99.99,,2013-04-12 07:02:00,
2013-04-11 21:12:00,76.0,-99.9,30.00,ESE,103,4.0,6.0,-999,-99.99,,,-99.99,,2013-04-12 07:12:00,
2013-04-11 21:22:00,76.0,-99.9,30.00,ENE,78,3.0,5.0,-999,-99.99,,,-99.99,,2013-04-12 07:22:00,
2013-04-11 21:32:00,76.0,-99.9,30.00,NE,52,4.0,6.0,-999,-99.99,,,-99.99,,2013-04-12 07:32:00,
2013-04-11 21:42:00,76.0,-99.9,30.00,ENE,71,1.0,4.0,-999,-99.99,,,-99.99,,2013-04-12 07:42:00,
2013-04-11 21:52:00,76.0,-99.9,30.01,East,80,2.0,6.0,-999,-99.99,,,-99.99,,2013-04-12 07:52:00,
2013-04-11 22:03:00,76.0,-99.9,30.00,East,81,2.0,5.0,-999,-99.99,,,-99.99,,2013-04-12 08:03:00,
2013-04-11 22:12:00,76.0,-99.9,30.00,East,81,2.0,5.0,-999,-99.99,,,-99.99,,2013-04-12 08:12:00,
2013-04-11 22:22:00,76.0,-99.9,30.00,ESE,111,5.0,7.0,-999,-99.99,,,-99.99,,2013-04-12 08:22:00,
2013-04-11 22:32:00,76.0,-99.9,30.01,East,80,1.0,6.0,-999,-99.99,,,-99.99,,2013-04-12 08:32:00,
2013-04-11 22:43:00,76.0,-99.9,30.01,East,97,2.0,6.0,-999,-99.99,,,-99.99,,2013-04-12 08:43:00,
2013-04-11 22:53:00,76.0,-99.9,30.01,ESE,123,0.0,3.0,-999,-99.99,,,-99.99,,2013-04-12 08:53:00,
2013-04-11 23:02:00,76.0,-99.9,30.01,ESE,105,4.0,6.0,-999,-99.99,,,-99.99,,2013-04-12 09:02:00,
2013-04-11 23:12:00,76.0,-99.9,30.01,East,97,2.0,3.0,-999,-99.99,,,-99.99,,2013-04-12 09:12:00,
2013-04-11 23:22:00,76.0,-99.9,30.01,ESE,117,2.0,3.0,-999,-99.99,,,-99.99,,2013-04-12 09:22:00,
2013-04-11 23:33:00,76.0,-99.9,30.01,ESE,120,2.0,5.0,-999,-99.99,,,-99.99,,2013-04-12 09:33:00,
2013-04-11 23:44:00,76.0,-99.9,30.01,SE,128,0.0,4.0,-999,-99.99,,,-99.99,,2013-04-12 09:44:00,
2013-04-11 23:53:00,76.0,-99.9,30.01,ESE,110,0.0,4.0,-999,-99.99,,,-99.99,,2013-04-12 09:53:00,